Terminal Aerodrome Forecast
Issued by NWS

Home | Current Version | Previous Version | Text Only | Print | Product List | Glossary On
Versions: 1 2 3 4 5 6 7 8 9 10 11 12 13 14 15 16 17 18 19 20 21 22 23 24 25 26 27 28 29 30 31 32 33 34 35 36 37 38 39 40 41 42 43 44 45 46 47 48 49 50
000
FTUS41 KPHI 230648 AAA
TAFMIV
TAF AMD
KMIV 230648Z 2307/2406 VRB05KT 4SM SHRA BR OVC030
      TEMPO 2307/2311 2SM -RA BR BKN010
     FM231200 28006KT 5SM SHRA BR OVC015
     FM231500 32007KT 6SM -SHRA BR OVC020
     FM232300 VRB04KT P6SM -SHRA OVC030=

USA.gov is the U.S. government's official web portal to all federal, state and local government web resources and services.